Terminal Aerodrome Forecast
Issued by NWS

Home | Current Version | Previous Version | Text Only | Print | Product List | Glossary On
Versions: 1 2 3 4 5 6 7 8 9 10 11 12
000
FTUS42 TJSJ 221738
TAFJPS
TAF
TJPS 221738Z 2218/2318 14012G19KT P6SM FEW030 SCT200
     FM222230 05003KT P6SM FEW030
     FM230300 00000KT P6SM FEW030 FEW050
     FM231450 12012KT P6SM SCT030
      AMD NOT SKED TIL 230300=

USA.gov is the U.S. government's official web portal to all federal, state and local government web resources and services.